Time;durP1;ratioP1;P1;durP2;ratioP2;P2;SDS_P1;SDS_P2;PMS_P1;PMS_P2;Temp;Humidity;BMP_temperature;BMP_pressure;BME280_temperature;BME280_humidity;BME280_pressure;Samples;Min_cycle;Max_cycle;Signal;HPM_P1;HPM_P2
2022/08/13 00:00:31;;;;;;;;;;;20.60;99.90;;;;;;5096412;28;19923;-76
2022/08/13 00:02:57;;;;;;;;;;;20.50;99.90;;;;;;5083573;28;19973;-76
2022/08/13 00:05:24;;;;;;;;;;;20.50;99.90;;;;;;5100260;28;19924;-76
2022/08/13 00:07:50;;;;;;;;;;;20.50;99.90;;;;;;5078295;28;19924;-76
2022/08/13 00:10:34;;;;;;;;;;;20.40;99.90;;;;;;5119540;28;20351;-76
2022/08/13 00:13:03;;;;;;;;;;;20.40;99.90;;;;;;5062454;28;20431;-77
2022/08/13 00:15:31;;;;;;;;;;;20.40;99.90;;;;;;5094960;28;19924;-78
2022/08/13 00:17:59;;;;;;;;;;;20.40;99.90;;;;;;5089392;28;19920;-77
2022/08/13 00:20:27;;;;;;;;;;;20.40;99.90;;;;;;5093949;28;19963;-77
2022/08/13 00:22:54;;;;;;;;;;;20.30;99.90;;;;;;5099359;28;19920;-78
2022/08/13 00:25:20;;;;;;;;;;;20.30;99.90;;;;;;5080624;28;20059;-77
2022/08/13 00:27:47;;;;;;;;;;;20.30;99.90;;;;;;5085170;28;19949;-77
2022/08/13 00:30:17;;;;;;;;;;;20.20;99.90;;;;;;5074639;28;20058;-78
2022/08/13 00:32:45;;;;;;;;;;;20.20;99.90;;;;;;5058658;28;20272;-77
2022/08/13 00:35:12;;;;;;;;;;;20.10;99.90;;;;;;5074445;28;19927;-77
2022/08/13 00:37:41;;;;;;;;;;;20.10;99.90;;;;;;5041964;28;20010;-77
2022/08/13 00:40:09;;;;;;;;;;;20.00;99.90;;;;;;5058273;28;19990;-77
2022/08/13 00:42:36;;;;;;;;;;;20.00;99.90;;;;;;5058251;28;19927;-77
2022/08/13 00:45:01;;;;;;;;;;;19.90;99.90;;;;;;5061430;28;19920;-77
2022/08/13 00:50:13;;;;;;;;;;;19.90;99.90;;;;;;5092396;28;19928;-78
2022/08/13 00:52:40;;;;;;;;;;;19.80;99.90;;;;;;5092254;28;20360;-77
2022/08/13 00:55:17;;;;;;;;;;;19.80;99.90;;;;;;5064087;28;19932;-77
2022/08/13 00:57:44;;;;;;;;;;;19.70;99.90;;;;;;5111896;28;19973;-77
2022/08/13 01:00:13;;;;;;;;;;;19.70;99.90;;;;;;5079344;28;19958;-77
2022/08/13 01:02:42;;;;;;;;;;;19.70;99.90;;;;;;5078676;28;19962;-77
2022/08/13 01:05:09;;;;;;;;;;;19.60;99.90;;;;;;5064914;28;19923;-77
2022/08/13 01:07:37;;;;;;;;;;;19.60;99.90;;;;;;5068873;28;19935;-77
2022/08/13 01:10:03;;;;;;;;;;;19.60;99.90;;;;;;5079416;28;20344;-77
2022/08/13 01:12:29;;;;;;;;;;;19.50;99.90;;;;;;5079237;28;19924;-81
2022/08/13 01:14:56;;;;;;;;;;;19.40;99.90;;;;;;5078502;28;19920;-77
2022/08/13 01:17:23;;;;;;;;;;;19.40;99.90;;;;;;5074876;28;19920;-77
2022/08/13 01:19:49;;;;;;;;;;;19.40;99.90;;;;;;5061472;28;19950;-77
2022/08/13 01:22:15;;;;;;;;;;;19.30;99.90;;;;;;5080063;28;19923;-77
2022/08/13 01:24:42;;;;;;;;;;;19.30;99.90;;;;;;5066231;28;20406;-77
2022/08/13 01:27:09;;;;;;;;;;;19.20;99.90;;;;;;5098790;28;20260;-77
2022/08/13 01:29:36;;;;;;;;;;;19.20;99.90;;;;;;5098026;28;19978;-77
2022/08/13 01:32:02;;;;;;;;;;;19.20;99.90;;;;;;5071777;28;19943;-77
2022/08/13 01:34:30;;;;;;;;;;;19.10;99.90;;;;;;5072488;28;19920;-77
2022/08/13 01:36:56;;;;;;;;;;;19.10;99.90;;;;;;5095605;28;19920;-78
2022/08/13 01:39:21;;;;;;;;;;;19.10;99.90;;;;;;5095780;28;20209;-77
2022/08/13 01:41:48;;;;;;;;;;;19.00;99.90;;;;;;5059272;28;20220;-77
2022/08/13 01:44:15;;;;;;;;;;;18.90;99.90;;;;;;5081277;28;20304;-78
2022/08/13 01:52:09;;;;;;;;;;;18.70;99.90;;;;;;5127535;27;19928;-78
2022/08/13 01:54:35;;;;;;;;;;;18.70;99.90;;;;;;5085091;28;19919;-77
2022/08/13 01:57:02;;;;;;;;;;;18.70;99.90;;;;;;5079762;28;19927;-77
2022/08/13 01:59:28;;;;;;;;;;;18.60;99.90;;;;;;5097309;28;19927;-77
2022/08/13 02:01:54;;;;;;;;;;;18.60;99.90;;;;;;5097792;28;19920;-77
2022/08/13 02:04:20;;;;;;;;;;;18.60;99.90;;;;;;5086251;28;19982;-77
2022/08/13 02:06:46;;;;;;;;;;;18.50;99.90;;;;;;5123891;27;20005;-77
2022/08/13 02:09:12;;;;;;;;;;;18.50;99.90;;;;;;5110766;28;19970;-78
2022/08/13 02:11:38;;;;;;;;;;;18.40;99.90;;;;;;5081003;28;19928;-79
2022/08/13 02:14:05;;;;;;;;;;;18.40;99.90;;;;;;5127146;27;19949;-77
2022/08/13 02:16:31;;;;;;;;;;;18.30;99.90;;;;;;5076881;28;19927;-77
2022/08/13 02:18:57;;;;;;;;;;;18.20;99.90;;;;;;5124594;27;20007;-77
2022/08/13 02:21:25;;;;;;;;;;;18.20;99.90;;;;;;5093994;28;19968;-78
2022/08/13 02:23:52;;;;;;;;;;;18.10;99.90;;;;;;5110000;28;19924;-78
2022/08/13 02:26:18;;;;;;;;;;;18.10;99.90;;;;;;5127684;27;19925;-77
2022/08/13 02:28:43;;;;;;;;;;;18.10;99.90;;;;;;5061148;28;19925;-77
2022/08/13 02:31:09;;;;;;;;;;;18.10;99.90;;;;;;5073161;28;19925;-77
2022/08/13 02:33:37;;;;;;;;;;;17.90;99.90;;;;;;5056761;28;19932;-77
2022/08/13 02:36:09;;;;;;;;;;;18.00;99.90;;;;;;5106931;28;20462;-77
2022/08/13 02:38:36;;;;;;;;;;;17.90;99.90;;;;;;5067284;28;20042;-77
2022/08/13 02:43:46;;;;;;;;;;;17.80;99.90;;;;;;5113184;27;19979;-77
2022/08/13 02:46:12;;;;;;;;;;;17.80;99.90;;;;;;5076366;28;19924;-78
2022/08/13 02:48:40;;;;;;;;;;;17.70;99.90;;;;;;5093476;28;20049;-77
2022/08/13 02:51:05;;;;;;;;;;;17.70;99.90;;;;;;5093347;28;20372;-77
2022/08/13 02:53:31;;;;;;;;;;;17.70;99.90;;;;;;5077393;28;19932;-77
2022/08/13 02:55:58;;;;;;;;;;;17.60;99.90;;;;;;5059204;28;19930;-77
2022/08/13 02:58:26;;;;;;;;;;;17.60;99.90;;;;;;5127479;27;20330;-77
2022/08/13 03:00:52;;;;;;;;;;;17.50;99.90;;;;;;5093423;28;19928;-77
2022/08/13 03:03:18;;;;;;;;;;;17.50;99.90;;;;;;5127454;27;19932;-77
2022/08/13 03:05:44;;;;;;;;;;;17.40;99.90;;;;;;5126892;27;20015;-78
2022/08/13 03:08:11;;;;;;;;;;;17.40;99.90;;;;;;5126031;27;19978;-77
2022/08/13 03:10:37;;;;;;;;;;;17.50;99.90;;;;;;5125820;27;19975;-77
2022/08/13 03:13:07;;;;;;;;;;;17.50;99.90;;;;;;5109562;28;20391;-77
2022/08/13 03:15:34;;;;;;;;;;;17.40;99.90;;;;;;5076128;28;19924;-77
2022/08/13 03:18:00;;;;;;;;;;;17.40;99.90;;;;;;5126625;27;19977;-77
2022/08/13 03:20:25;;;;;;;;;;;17.40;99.90;;;;;;5075936;28;19927;-77
2022/08/13 03:22:52;;;;;;;;;;;17.40;99.90;;;;;;5126688;27;19928;-77
2022/08/13 03:25:19;;;;;;;;;;;17.40;99.90;;;;;;5126447;27;20650;-81
2022/08/13 03:27:45;;;;;;;;;;;17.50;99.90;;;;;;5125730;27;19924;-77
2022/08/13 03:30:12;;;;;;;;;;;17.40;99.90;;;;;;5090672;28;19932;-77
2022/08/13 03:32:41;;;;;;;;;;;17.40;99.90;;;;;;5071983;28;20332;-77
2022/08/13 03:35:11;;;;;;;;;;;17.40;99.90;;;;;;5074888;28;19932;-77
2022/08/13 03:37:38;;;;;;;;;;;17.40;99.90;;;;;;5092865;28;19924;-77
2022/08/13 03:40:05;;;;;;;;;;;17.40;99.90;;;;;;5109051;28;19967;-80
2022/08/13 03:42:30;;;;;;;;;;;17.30;99.90;;;;;;5124697;27;20010;-77
2022/08/13 03:44:56;;;;;;;;;;;17.30;99.90;;;;;;5126226;27;20083;-77
2022/08/13 03:47:23;;;;;;;;;;;17.20;99.90;;;;;;5075804;28;19931;-77
2022/08/13 03:49:48;;;;;;;;;;;17.20;99.90;;;;;;5126579;28;19928;-81
2022/08/13 03:52:14;;;;;;;;;;;17.20;99.90;;;;;;5108095;28;19951;-77
2022/08/13 03:54:40;;;;;;;;;;;17.20;99.90;;;;;;5071943;28;19925;-77
2022/08/13 03:57:06;;;;;;;;;;;17.10;99.90;;;;;;5098608;28;19924;-77
2022/08/13 03:59:32;;;;;;;;;;;17.10;99.90;;;;;;5109091;28;20027;-77
2022/08/13 04:02:01;;;;;;;;;;;17.10;99.90;;;;;;5091572;28;19975;-77
2022/08/13 04:04:27;;;;;;;;;;;17.10;99.90;;;;;;5075043;28;19931;-80
2022/08/13 04:06:52;;;;;;;;;;;17.10;99.90;;;;;;5104145;28;19960;-77
2022/08/13 04:09:18;;;;;;;;;;;17.10;99.90;;;;;;5058763;28;20003;-77
2022/08/13 04:11:46;;;;;;;;;;;17.10;99.90;;;;;;5092135;28;19932;-77
2022/08/13 04:14:12;;;;;;;;;;;17.10;99.90;;;;;;5075401;28;20019;-78
2022/08/13 04:16:39;;;;;;;;;;;17.10;99.90;;;;;;5092085;28;19956;-77
2022/08/13 04:19:05;;;;;;;;;;;17.10;99.90;;;;;;5093413;28;19932;-77
2022/08/13 04:21:31;;;;;;;;;;;17.00;99.90;;;;;;5096422;28;20291;-77
2022/08/13 04:23:57;;;;;;;;;;;17.00;99.90;;;;;;5096135;28;19924;-77
2022/08/13 04:26:26;;;;;;;;;;;17.10;99.90;;;;;;5113051;28;19930;-77
2022/08/13 04:28:53;;;;;;;;;;;17.00;99.90;;;;;;5130389;27;19928;-77
2022/08/13 04:31:19;;;;;;;;;;;17.10;99.90;;;;;;5112773;28;19928;-77
2022/08/13 04:33:45;;;;;;;;;;;17.10;99.90;;;;;;5113160;28;19931;-77
2022/08/13 04:36:11;;;;;;;;;;;17.10;99.90;;;;;;5129798;27;20296;-77
2022/08/13 04:38:37;;;;;;;;;;;17.10;99.90;;;;;;5079264;28;19931;-77
2022/08/13 04:41:03;;;;;;;;;;;17.10;99.90;;;;;;5095891;28;19924;-77
2022/08/13 04:43:29;;;;;;;;;;;17.10;99.90;;;;;;5078834;28;19951;-77
2022/08/13 04:45:58;;;;;;;;;;;17.10;99.90;;;;;;5112550;28;19930;-84
2022/08/13 04:48:24;;;;;;;;;;;17.20;99.90;;;;;;5112832;28;20276;-77
2022/08/13 04:50:50;;;;;;;;;;;17.10;99.90;;;;;;5095327;28;19931;-77
2022/08/13 04:53:26;;;;;;;;;;;17.20;99.90;;;;;;5129316;27;19931;-77
2022/08/13 04:55:52;;;;;;;;;;;17.20;99.90;;;;;;5112722;28;19975;-77
2022/08/13 04:58:18;;;;;;;;;;;17.30;99.90;;;;;;5095609;28;20350;-77
2022/08/13 05:00:45;;;;;;;;;;;17.30;99.90;;;;;;5095240;28;19924;-77
2022/08/13 05:03:15;;;;;;;;;;;17.40;99.90;;;;;;5112503;28;19963;-77
2022/08/13 05:05:41;;;;;;;;;;;17.30;99.90;;;;;;5129576;27;19924;-77
2022/08/13 05:08:07;;;;;;;;;;;17.40;99.90;;;;;;5110898;28;20007;-77
2022/08/13 05:10:38;;;;;;;;;;;17.40;99.90;;;;;;5128794;27;20317;-77
2022/08/13 05:13:30;;;;;;;;;;;17.40;99.90;;;;;;5112007;28;19931;-77
2022/08/13 05:15:56;;;;;;;;;;;17.40;99.90;;;;;;5129746;27;19989;-77
2022/08/13 05:18:22;;;;;;;;;;;17.50;99.90;;;;;;5106165;28;20002;-77
2022/08/13 05:20:48;;;;;;;;;;;17.50;99.90;;;;;;5111914;28;19975;-77
2022/08/13 05:23:14;;;;;;;;;;;17.50;99.90;;;;;;5111852;28;19973;-77
2022/08/13 05:25:40;;;;;;;;;;;17.60;99.90;;;;;;5112191;28;20284;-77
2022/08/13 05:28:08;;;;;;;;;;;17.60;99.90;;;;;;5094740;28;19943;-77
2022/08/13 05:30:37;;;;;;;;;;;17.70;99.90;;;;;;5076427;28;19978;-77
2022/08/13 05:33:10;;;;;;;;;;;17.80;99.90;;;;;;5094967;28;19924;-77
2022/08/13 05:35:37;;;;;;;;;;;17.80;99.90;;;;;;5112006;28;20410;-77
2022/08/13 05:38:04;;;;;;;;;;;17.80;99.90;;;;;;5041134;28;19925;-77
2022/08/13 05:40:30;;;;;;;;;;;17.90;99.90;;;;;;5057872;28;19970;-77
2022/08/13 05:42:59;;;;;;;;;;;18.00;99.90;;;;;;5091388;28;20364;-77
2022/08/13 05:45:25;;;;;;;;;;;18.00;99.90;;;;;;5074820;28;20029;-77
2022/08/13 05:47:51;;;;;;;;;;;18.10;99.90;;;;;;5052487;28;19997;-77
2022/08/13 05:50:17;;;;;;;;;;;18.10;99.90;;;;;;5111302;28;19924;-77
2022/08/13 05:52:43;;;;;;;;;;;18.10;99.90;;;;;;5042418;28;19925;-78
2022/08/13 05:55:11;;;;;;;;;;;18.20;99.90;;;;;;5077511;28;19990;-76
2022/08/13 05:57:38;;;;;;;;;;;18.30;99.90;;;;;;5102028;28;19999;-77
2022/08/13 06:05:33;;;;;;;;;;;18.50;99.90;;;;;;5077503;28;19931;-77
2022/08/13 06:07:59;;;;;;;;;;;18.60;99.90;;;;;;5061831;28;19928;-77
2022/08/13 06:10:24;;;;;;;;;;;18.70;99.90;;;;;;5087833;28;19931;-77
2022/08/13 06:12:50;;;;;;;;;;;18.80;99.90;;;;;;5063812;28;19946;-77
2022/08/13 06:15:17;;;;;;;;;;;18.90;99.90;;;;;;5078788;28;19931;-76
2022/08/13 06:17:43;;;;;;;;;;;19.00;99.90;;;;;;5097692;28;19935;-77
2022/08/13 06:20:08;;;;;;;;;;;19.10;99.90;;;;;;5080373;28;20273;-79
2022/08/13 06:22:34;;;;;;;;;;;19.20;99.90;;;;;;5071873;28;19950;-79
2022/08/13 06:25:02;;;;;;;;;;;19.30;99.90;;;;;;5060444;28;19924;-77
2022/08/13 06:27:28;;;;;;;;;;;19.40;99.90;;;;;;5067270;28;20270;-81
2022/08/13 06:29:54;;;;;;;;;;;19.50;99.90;;;;;;5057998;28;19935;-78
2022/08/13 06:32:21;;;;;;;;;;;19.50;99.90;;;;;;5068319;28;19935;-78
2022/08/13 06:34:46;;;;;;;;;;;19.60;99.90;;;;;;5087600;28;19935;-79
2022/08/13 06:37:12;;;;;;;;;;;19.70;99.90;;;;;;5072802;28;19928;-80
2022/08/13 06:39:38;;;;;;;;;;;19.80;99.90;;;;;;5073690;28;19950;-79
2022/08/13 06:42:04;;;;;;;;;;;19.90;99.90;;;;;;5112229;27;19936;-78
2022/08/13 06:44:33;;;;;;;;;;;20.00;99.90;;;;;;5070137;28;20364;-79
2022/08/13 06:47:03;;;;;;;;;;;20.10;99.90;;;;;;5068441;28;19932;-79
2022/08/13 06:49:28;;;;;;;;;;;20.20;99.90;;;;;;5094364;28;19939;-80
2022/08/13 06:51:55;;;;;;;;;;;20.30;99.90;;;;;;5123857;27;19925;-79
2022/08/13 06:54:21;;;;;;;;;;;20.40;99.90;;;;;;5120538;27;19982;-83
2022/08/13 06:56:46;;;;;;;;;;;20.50;99.90;;;;;;5078936;28;19928;-79
2022/08/13 06:59:13;;;;;;;;;;;20.60;99.90;;;;;;5085067;28;20178;-79
2022/08/13 07:01:40;;;;;;;;;;;20.80;99.90;;;;;;5093429;28;20376;-79
2022/08/13 07:04:15;;;;;;;;;;;20.90;99.90;;;;;;5098393;28;19988;-79
2022/08/13 07:06:41;;;;;;;;;;;21.00;99.90;;;;;;5115649;27;19924;-79
2022/08/13 07:09:06;;;;;;;;;;;21.10;99.90;;;;;;5075134;28;20010;-79
2022/08/13 07:11:32;;;;;;;;;;;21.20;99.90;;;;;;5097393;28;20083;-80
2022/08/13 07:13:59;;;;;;;;;;;21.30;99.90;;;;;;5053403;28;20364;-80
2022/08/13 07:16:30;;;;;;;;;;;21.40;99.90;;;;;;5089026;28;19982;-79
2022/08/13 07:18:57;;;;;;;;;;;21.50;99.90;;;;;;5107695;28;20328;-79
2022/08/13 07:21:24;;;;;;;;;;;21.70;99.90;;;;;;5123096;27;19943;-77
2022/08/13 07:23:50;;;;;;;;;;;21.70;99.90;;;;;;5105814;27;19936;-76
2022/08/13 07:26:18;;;;;;;;;;;21.90;99.90;;;;;;5114233;27;20015;-78
2022/08/13 07:28:45;;;;;;;;;;;22.00;99.90;;;;;;5077465;28;19928;-77
2022/08/13 07:31:13;;;;;;;;;;;22.10;99.90;;;;;;5072447;28;19935;-78
2022/08/13 07:33:42;;;;;;;;;;;22.30;99.90;;;;;;5073220;28;20333;-78
2022/08/13 07:36:10;;;;;;;;;;;22.40;99.90;;;;;;5073012;28;19976;-78
2022/08/13 07:38:36;;;;;;;;;;;22.50;99.90;;;;;;5089996;28;19923;-78
2022/08/13 07:41:03;;;;;;;;;;;22.60;99.90;;;;;;5072908;28;20295;-79
2022/08/13 07:43:36;;;;;;;;;;;22.80;99.90;;;;;;5123894;27;19932;-79
2022/08/13 07:46:09;;;;;;;;;;;22.90;99.90;;;;;;5106092;28;19957;-78
2022/08/13 07:48:40;;;;;;;;;;;23.00;99.90;;;;;;5076534;28;19928;-79
2022/08/13 07:51:07;;;;;;;;;;;23.10;99.90;;;;;;5123560;28;20529;-80
2022/08/13 07:53:35;;;;;;;;;;;23.20;99.90;;;;;;5123207;27;19924;-80
2022/08/13 07:56:02;;;;;;;;;;;23.30;99.90;;;;;;5121475;28;19928;-81
2022/08/13 07:58:28;;;;;;;;;;;23.50;99.90;;;;;;5117178;28;19928;-85
2022/08/13 08:00:57;;;;;;;;;;;23.50;99.90;;;;;;5121219;28;19928;-81
2022/08/13 08:03:45;;;;;;;;;;;23.60;99.90;;;;;;5072193;28;20382;-80
2022/08/13 08:06:14;;;;;;;;;;;23.80;99.90;;;;;;5087121;28;20030;-80
2022/08/13 08:08:42;;;;;;;;;;;23.90;99.90;;;;;;5089645;28;20303;-79
2022/08/13 08:11:08;;;;;;;;;;;24.00;99.90;;;;;;5118839;28;20337;-78
2022/08/13 08:13:35;;;;;;;;;;;24.10;99.90;;;;;;5072717;28;19959;-80
2022/08/13 08:16:03;;;;;;;;;;;24.10;99.90;;;;;;5072698;28;19928;-80
2022/08/13 08:18:30;;;;;;;;;;;24.20;99.90;;;;;;5059750;28;19939;-79
2022/08/13 08:21:06;;;;;;;;;;;24.30;99.90;;;;;;5099604;28;19928;-80
2022/08/13 08:23:34;;;;;;;;;;;24.50;99.90;;;;;;5105973;28;19935;-78
2022/08/13 08:26:01;;;;;;;;;;;24.50;99.90;;;;;;5089521;28;19928;-78
2022/08/13 08:28:30;;;;;;;;;;;24.60;99.90;;;;;;5105543;28;20009;-79
2022/08/13 08:30:56;;;;;;;;;;;24.80;99.90;;;;;;5119549;28;20303;-79
2022/08/13 08:33:26;;;;;;;;;;;24.90;99.90;;;;;;5105817;28;20387;-78
2022/08/13 08:35:53;;;;;;;;;;;25.00;99.90;;;;;;5088913;28;19935;-78
2022/08/13 08:43:48;;;;;;;;;;;25.40;99.90;;;;;;5089404;28;19936;-80
2022/08/13 08:46:15;;;;;;;;;;;25.50;99.90;;;;;;5105258;28;19924;-85
2022/08/13 08:48:41;;;;;;;;;;;25.60;99.90;;;;;;5118457;28;19928;-81
2022/08/13 08:51:07;;;;;;;;;;;25.60;99.90;;;;;;5102479;28;19949;-81
2022/08/13 08:53:33;;;;;;;;;;;25.70;99.90;;;;;;5069265;28;19928;-80
2022/08/13 08:55:59;;;;;;;;;;;25.90;99.80;;;;;;5071868;28;19940;-84
2022/08/13 08:58:25;;;;;;;;;;;25.90;99.90;;;;;;5104504;28;19936;-78
2022/08/13 09:00:56;;;;;;;;;;;26.00;99.90;;;;;;5070370;28;20398;-78
2022/08/13 09:03:24;;;;;;;;;;;26.20;99.90;;;;;;5105033;28;20007;-79
2022/08/13 09:05:49;;;;;;;;;;;26.30;98.30;;;;;;5077059;28;19990;-79
2022/08/13 09:08:17;;;;;;;;;;;26.40;98.20;;;;;;5076104;28;20284;-78
2022/08/13 09:10:44;;;;;;;;;;;26.50;98.20;;;;;;5075050;28;20344;-80
2022/08/13 09:13:19;;;;;;;;;;;26.60;97.10;;;;;;5075823;28;20032;-79
2022/08/13 09:15:46;;;;;;;;;;;26.70;98.30;;;;;;5075100;28;19967;-80
2022/08/13 09:18:12;;;;;;;;;;;26.80;97.70;;;;;;5109041;28;19970;-80
2022/08/13 09:20:37;;;;;;;;;;;26.90;97.30;;;;;;5108921;28;20377;-79
2022/08/13 09:23:06;;;;;;;;;;;27.00;95.80;;;;;;5077728;28;20379;-79
2022/08/13 09:25:31;;;;;;;;;;;27.10;94.60;;;;;;5092388;28;19931;-77
2022/08/13 09:27:57;;;;;;;;;;;27.20;96.80;;;;;;5092047;28;19924;-79
2022/08/13 09:30:23;;;;;;;;;;;27.20;96.20;;;;;;5092256;28;20364;-79
2022/08/13 09:32:52;;;;;;;;;;;27.40;94.20;;;;;;5074794;28;19932;-78
2022/08/13 09:35:17;;;;;;;;;;;27.40;93.70;;;;;;5124693;27;19928;-78
2022/08/13 09:37:44;;;;;;;;;;;27.60;93.40;;;;;;5095208;28;19931;-81
2022/08/13 09:40:13;;;;;;;;;;;27.70;93.60;;;;;;5072097;28;20365;-79
2022/08/13 09:42:47;;;;;;;;;;;27.70;93.60;;;;;;5076837;28;19954;-80
2022/08/13 09:45:14;;;;;;;;;;;27.80;94.10;;;;;;5126209;27;19967;-80
2022/08/13 09:47:40;;;;;;;;;;;27.90;93.60;;;;;;5073045;28;19928;-80
2022/08/13 09:50:08;;;;;;;;;;;28.10;94.40;;;;;;5054111;28;20399;-80
2022/08/13 09:52:34;;;;;;;;;;;28.10;92.50;;;;;;5114060;27;19929;-79
2022/08/13 09:54:59;;;;;;;;;;;28.30;93.50;;;;;;5078555;28;19928;-78
2022/08/13 09:57:25;;;;;;;;;;;28.30;92.30;;;;;;5089573;28;19928;-83
2022/08/13 09:59:51;;;;;;;;;;;28.40;94.00;;;;;;5107689;28;19931;-78
2022/08/13 10:02:17;;;;;;;;;;;28.50;92.30;;;;;;5074601;28;19970;-81
2022/08/13 10:04:43;;;;;;;;;;;28.60;92.40;;;;;;5090953;28;19931;-82
2022/08/13 10:07:11;;;;;;;;;;;28.70;91.70;;;;;;5108760;28;19936;-79
2022/08/13 10:09:37;;;;;;;;;;;28.70;91.10;;;;;;5108212;28;19934;-79
2022/08/13 10:12:05;;;;;;;;;;;28.70;91.00;;;;;;5091237;28;20330;-80
2022/08/13 10:14:31;;;;;;;;;;;28.80;92.00;;;;;;5106484;27;20027;-80
2022/08/13 10:16:57;;;;;;;;;;;28.90;90.00;;;;;;5107771;27;20030;-76
2022/08/13 10:19:23;;;;;;;;;;;28.90;90.40;;;;;;5125354;27;19966;-80
2022/08/13 10:21:48;;;;;;;;;;;29.00;91.70;;;;;;5125264;27;19932;-80
2022/08/13 10:24:14;;;;;;;;;;;29.10;90.20;;;;;;5058194;28;20010;-80
2022/08/13 10:26:40;;;;;;;;;;;29.20;90.60;;;;;;5107184;28;20318;-80
2022/08/13 10:29:08;;;;;;;;;;;29.30;87.40;;;;;;5071659;28;19947;-81
2022/08/13 10:31:34;;;;;;;;;;;29.40;89.20;;;;;;5089333;28;19965;-82
2022/08/13 10:33:59;;;;;;;;;;;29.50;89.70;;;;;;5105678;28;19933;-82
2022/08/13 10:36:26;;;;;;;;;;;29.60;88.50;;;;;;5071569;28;19935;-80
2022/08/13 10:38:51;;;;;;;;;;;29.70;90.30;;;;;;5054603;28;19978;-80
2022/08/13 10:41:17;;;;;;;;;;;29.70;90.40;;;;;;5124877;27;19967;-81
2022/08/13 10:43:43;;;;;;;;;;;29.80;90.30;;;;;;5078748;28;19999;-80
2022/08/13 10:46:11;;;;;;;;;;;29.80;86.90;;;;;;5096774;28;19937;-86
2022/08/13 10:48:37;;;;;;;;;;;30.00;88.10;;;;;;5083754;28;19928;-82
2022/08/13 10:51:03;;;;;;;;;;;30.00;84.90;;;;;;5090294;28;19938;-81
2022/08/13 10:56:13;;;;;;;;;;;30.30;88.20;;;;;;5090544;28;19986;-79
2022/08/13 10:58:39;;;;;;;;;;;30.40;88.50;;;;;;5077264;28;20487;-79
2022/08/13 11:01:05;;;;;;;;;;;30.40;85.20;;;;;;5088772;28;20300;-78
2022/08/13 11:03:32;;;;;;;;;;;30.60;84.80;;;;;;5118120;27;19995;-78
2022/08/13 11:05:59;;;;;;;;;;;30.70;88.10;;;;;;5075262;28;20014;-78
2022/08/13 11:08:26;;;;;;;;;;;30.70;86.90;;;;;;5123762;27;19928;-80
2022/08/13 11:10:51;;;;;;;;;;;30.80;85.60;;;;;;5072828;28;19940;-78
2022/08/13 11:13:17;;;;;;;;;;;30.90;86.30;;;;;;5071666;28;19955;-78
2022/08/13 11:15:42;;;;;;;;;;;31.00;84.40;;;;;;5089025;28;19928;-76
2022/08/13 11:18:09;;;;;;;;;;;31.10;83.40;;;;;;5089264;28;19974;-78
2022/08/13 11:21:02;;;;;;;;;;;31.10;85.10;;;;;;5072559;28;19928;-76
2022/08/13 11:23:20;;;;;;;;;;;31.20;82.60;;;;;;5092982;28;19966;-81
2022/08/13 11:25:46;;;;;;;;;;;31.40;85.20;;;;;;5087348;28;19975;-80
2022/08/13 11:28:15;;;;;;;;;;;31.70;85.20;;;;;;5087978;28;19997;-78
2022/08/13 11:30:40;;;;;;;;;;;31.90;82.10;;;;;;5085550;28;20384;-79
2022/08/13 11:33:06;;;;;;;;;;;32.10;83.40;;;;;;5106828;28;19928;-76
2022/08/13 11:35:35;;;;;;;;;;;32.40;85.80;;;;;;5106427;28;19931;-76
2022/08/13 11:38:11;;;;;;;;;;;32.70;81.30;;;;;;5106354;28;19932;-76
2022/08/13 11:40:37;;;;;;;;;;;32.90;77.80;;;;;;5072511;28;19927;-77
2022/08/13 11:43:03;;;;;;;;;;;33.20;80.20;;;;;;5093116;28;19981;-77
2022/08/13 11:45:29;;;;;;;;;;;33.30;79.00;;;;;;5071439;28;19932;-77
2022/08/13 11:47:54;;;;;;;;;;;33.50;78.10;;;;;;5062923;28;19973;-77
2022/08/13 11:50:20;;;;;;;;;;;33.70;78.30;;;;;;5076664;28;19924;-77
2022/08/13 11:52:45;;;;;;;;;;;33.90;76.60;;;;;;5052735;28;19990;-77
2022/08/13 11:55:11;;;;;;;;;;;34.10;76.10;;;;;;5069575;28;20016;-77
2022/08/13 11:57:36;;;;;;;;;;;34.20;74.50;;;;;;5057380;28;19932;-79
2022/08/13 12:00:07;;;;;;;;;;;34.40;72.30;;;;;;5075939;28;19982;-79
2022/08/13 12:02:33;;;;;;;;;;;34.60;74.60;;;;;;5089693;28;20390;-79
2022/08/13 12:04:59;;;;;;;;;;;34.70;74.80;;;;;;5073295;28;20022;-80
2022/08/13 12:07:24;;;;;;;;;;;35.00;76.60;;;;;;5057779;28;19928;-80
2022/08/13 12:09:50;;;;;;;;;;;35.20;71.40;;;;;;5091172;28;20410;-82
2022/08/13 12:12:15;;;;;;;;;;;35.10;70.70;;;;;;5106571;28;19981;-79
2022/08/13 12:14:41;;;;;;;;;;;35.10;71.20;;;;;;5073034;28;19931;-79
2022/08/13 12:17:07;;;;;;;;;;;34.90;68.20;;;;;;5076614;28;19987;-79
2022/08/13 12:19:33;;;;;;;;;;;35.10;72.30;;;;;;5107093;28;19979;-80
2022/08/13 12:22:00;;;;;;;;;;;35.40;70.30;;;;;;5106949;28;20121;-79
2022/08/13 12:24:26;;;;;;;;;;;35.40;66.60;;;;;;5073308;28;19928;-80
2022/08/13 12:26:52;;;;;;;;;;;35.30;64.30;;;;;;5075071;28;19935;-80
2022/08/13 12:29:17;;;;;;;;;;;34.90;65.80;;;;;;5075572;28;20264;-82
2022/08/13 12:31:43;;;;;;;;;;;34.90;65.60;;;;;;5070051;28;19994;-80
2022/08/13 12:34:09;;;;;;;;;;;34.90;65.20;;;;;;5098513;28;19939;-79
2022/08/13 12:36:34;;;;;;;;;;;34.90;65.40;;;;;;5100268;28;19928;-78
2022/08/13 12:39:00;;;;;;;;;;;35.00;64.70;;;;;;5071793;28;20288;-80
2022/08/13 12:41:25;;;;;;;;;;;35.10;64.60;;;;;;5076100;28;19962;-77
2022/08/13 12:43:51;;;;;;;;;;;35.50;66.60;;;;;;5091536;28;19931;-78
2022/08/13 12:46:16;;;;;;;;;;;35.70;63.00;;;;;;5124824;27;20040;-79
2022/08/13 12:48:42;;;;;;;;;;;35.80;64.90;;;;;;5103807;28;19933;-80
2022/08/13 12:51:08;;;;;;;;;;;36.20;62.50;;;;;;5119363;27;20470;-77
2022/08/13 12:53:33;;;;;;;;;;;36.30;64.70;;;;;;5087853;28;20034;-78
2022/08/13 12:55:59;;;;;;;;;;;36.40;60.70;;;;;;5082691;28;19955;-78
2022/08/13 12:58:25;;;;;;;;;;;36.40;60.20;;;;;;5092369;28;19986;-77
2022/08/13 13:00:52;;;;;;;;;;;36.40;63.10;;;;;;5089368;28;19924;-86
2022/08/13 13:03:18;;;;;;;;;;;36.40;58.60;;;;;;5072517;28;19963;-83
2022/08/13 13:05:46;;;;;;;;;;;36.80;59.90;;;;;;5079400;28;20284;-82
2022/08/13 13:08:27;;;;;;;;;;;36.90;62.70;;;;;;5085695;28;19920;-86
2022/08/13 13:10:57;;;;;;;;;;;37.10;61.50;;;;;;5127725;27;19932;-83
2022/08/13 13:13:24;;;;;;;;;;;37.30;60.50;;;;;;5091949;28;19931;-83
2022/08/13 13:15:50;;;;;;;;;;;37.40;59.00;;;;;;5090049;28;20028;-83
2022/08/13 13:18:19;;;;;;;;;;;37.60;59.10;;;;;;5122368;27;20360;-83
2022/08/13 13:20:46;;;;;;;;;;;37.80;59.10;;;;;;5093729;28;19924;-84
2022/08/13 13:23:12;;;;;;;;;;;37.90;58.40;;;;;;5081371;28;19928;-85
2022/08/13 13:25:40;;;;;;;;;;;37.80;57.70;;;;;;5106480;28;19972;-84
2022/08/13 13:28:06;;;;;;;;;;;37.80;57.10;;;;;;5087508;28;20321;-82
2022/08/13 13:30:32;;;;;;;;;;;38.00;57.70;;;;;;5109323;28;19946;-83
2022/08/13 13:32:58;;;;;;;;;;;38.30;57.40;;;;;;5095491;28;20372;-83
2022/08/13 13:35:24;;;;;;;;;;;38.60;56.90;;;;;;5087350;28;19924;-83
2022/08/13 13:37:49;;;;;;;;;;;38.70;54.80;;;;;;5107998;28;19924;-83
2022/08/13 13:40:15;;;;;;;;;;;38.80;55.40;;;;;;5032553;28;19931;-81
2022/08/13 13:42:41;;;;;;;;;;;39.10;57.10;;;;;;5075213;28;19931;-83
2022/08/13 13:45:07;;;;;;;;;;;39.20;53.10;;;;;;5096423;28;19924;-83
2022/08/13 13:47:33;;;;;;;;;;;38.70;52.10;;;;;;5059887;28;19928;-86
2022/08/13 13:49:59;;;;;;;;;;;38.90;54.10;;;;;;5061848;28;19980;-82
2022/08/13 13:52:24;;;;;;;;;;;39.10;55.70;;;;;;5082361;28;20067;-83
2022/08/13 13:54:50;;;;;;;;;;;39.60;57.10;;;;;;5076013;28;19928;-84
2022/08/13 13:57:16;;;;;;;;;;;39.70;52.90;;;;;;5042305;28;19955;-85
2022/08/13 13:59:41;;;;;;;;;;;39.50;52.10;;;;;;5028219;28;19928;-82
2022/08/13 14:02:07;;;;;;;;;;;39.50;52.00;;;;;;5069386;28;20364;-82
2022/08/13 14:04:32;;;;;;;;;;;39.60;52.70;;;;;;5071577;28;19935;-83
2022/08/13 14:07:04;;;;;;;;;;;39.60;50.60;;;;;;5042901;28;20319;-91
2022/08/13 14:09:30;;;;;;;;;;;40.00;53.60;;;;;;5072176;28;20007;-85
2022/08/13 14:11:56;;;;;;;;;;;40.10;50.40;;;;;;5084202;28;20015;-85
2022/08/13 14:14:22;;;;;;;;;;;40.20;50.80;;;;;;5047389;28;19924;-80
2022/08/13 14:16:48;;;;;;;;;;;40.70;51.80;;;;;;5086562;28;19924;-81
2022/08/13 14:19:14;;;;;;;;;;;40.90;50.80;;;;;;5076040;28;19932;-81
2022/08/13 14:21:39;;;;;;;;;;;41.00;53.50;;;;;;5068145;28;19932;-80
2022/08/13 14:24:05;;;;;;;;;;;41.10;52.50;;;;;;5074431;28;19935;-81
2022/08/13 14:26:30;;;;;;;;;;;41.20;51.70;;;;;;5091405;28;20379;-80
2022/08/13 14:28:56;;;;;;;;;;;41.60;53.90;;;;;;5055153;28;20360;-79
2022/08/13 14:31:22;;;;;;;;;;;41.60;51.20;;;;;;5083606;28;19971;-79
2022/08/13 14:33:48;;;;;;;;;;;41.80;51.50;;;;;;5091353;28;19972;-81
2022/08/13 14:36:15;;;;;;;;;;;41.60;49.20;;;;;;5124166;27;20295;-80
2022/08/13 14:38:41;;;;;;;;;;;41.60;49.90;;;;;;5065191;28;19930;-79